createdAt,value
2023-04-18T00:01:30.788Z,10.37
2023-04-18T00:03:58.196Z,10.51
2023-04-18T00:06:25.998Z,10.66
2023-04-18T00:08:53.314Z,10.41
2023-04-18T00:11:20.713Z,10.45
2023-04-18T00:13:48.134Z,10.37
2023-04-18T00:16:15.716Z,10.29
2023-04-18T00:18:43.074Z,10.26
2023-04-18T00:21:10.303Z,10.04
2023-04-18T00:23:39.809Z,10.11
2023-04-18T00:26:07.146Z,10.09
2023-04-18T00:28:34.620Z,10.22
2023-04-18T00:31:02.142Z,10.16
2023-04-18T00:33:32.370Z,10.07
2023-04-18T00:35:59.686Z,10.15
2023-04-18T00:38:26.924Z,10.25
2023-04-18T00:40:54.241Z,10.30
2023-04-18T00:43:23.816Z,10.20
2023-04-18T00:45:51.178Z,9.91
2023-04-18T00:48:18.504Z,9.74
2023-04-18T00:50:46.036Z,9.88
2023-04-18T00:53:13.548Z,9.80
2023-04-18T00:55:41.777Z,9.80
2023-04-18T00:58:09.296Z,9.83
2023-04-18T01:00:36.940Z,9.89
2023-04-18T01:03:04.724Z,9.75
2023-04-18T01:05:32.003Z,9.72
2023-04-18T01:08:01.244Z,9.69
2023-04-18T01:10:30.053Z,9.59
2023-04-18T01:13:17.322Z,9.68
2023-04-18T01:15:46.879Z,9.90
2023-04-18T01:18:18.506Z,10.02
2023-04-18T01:20:50.963Z,9.80
2023-04-18T01:23:20.703Z,9.93
2023-04-18T01:25:51.808Z,9.93
2023-04-18T01:28:21.239Z,9.75
2023-04-18T01:30:49.188Z,10.02
2023-04-18T01:33:16.485Z,9.83
2023-04-18T01:35:46.403Z,9.92
2023-04-18T01:38:13.637Z,10.08
2023-04-18T01:40:40.915Z,10.00
2023-04-18T01:43:08.369Z,10.15
2023-04-18T01:45:38.220Z,9.71
2023-04-18T01:48:05.739Z,9.70
2023-04-18T01:50:33.588Z,9.64
2023-04-18T01:53:00.898Z,9.86
2023-04-18T01:55:28.131Z,9.62
2023-04-18T01:57:55.462Z,9.46
2023-04-18T02:00:22.863Z,9.69
2023-04-18T02:02:50.522Z,9.88
2023-04-18T02:05:18.139Z,10.01
2023-04-18T02:07:45.678Z,9.86
2023-04-18T02:10:13.010Z,9.93
2023-04-18T02:12:40.238Z,9.74
2023-04-18T02:15:07.989Z,9.56
2023-04-18T02:17:36.852Z,9.66
2023-04-18T02:20:04.569Z,9.85
2023-04-18T02:22:31.902Z,9.91
2023-04-18T02:25:01.052Z,9.77
2023-04-18T02:27:28.364Z,9.56
2023-04-18T02:29:57.670Z,9.84
2023-04-18T02:32:25.107Z,9.62
2023-04-18T02:34:52.443Z,9.39
2023-04-18T02:37:19.725Z,9.38
2023-04-18T02:39:47.030Z,9.44
2023-04-18T02:42:14.789Z,9.41
2023-04-18T02:44:42.081Z,9.30
2023-04-18T02:47:09.983Z,9.37
2023-04-18T02:49:40.501Z,9.54
2023-04-18T02:52:07.773Z,9.36
2023-04-18T02:54:35.099Z,9.56
2023-04-18T02:57:07.616Z,9.73
2023-04-18T02:59:55.099Z,9.64
2023-04-18T03:02:31.581Z,9.62
2023-04-18T03:05:06.721Z,9.56
2023-04-18T03:07:34.145Z,9.48
2023-04-18T03:10:01.427Z,9.25
2023-04-18T03:12:33.771Z,9.26
2023-04-18T03:15:01.585Z,9.19
2023-04-18T03:17:29.099Z,9.28
2023-04-18T03:19:56.383Z,9.24
2023-04-18T03:22:24.526Z,9.28
2023-04-18T03:24:56.908Z,9.38
2023-04-18T03:27:38.475Z,9.42
2023-04-18T03:30:06.475Z,9.25
2023-04-18T03:32:35.287Z,9.20
2023-04-18T03:35:03.283Z,9.27
2023-04-18T03:37:30.939Z,9.21
2023-04-18T03:39:59.951Z,9.34
2023-04-18T03:42:29.723Z,9.32
2023-04-18T03:44:57.220Z,9.13
2023-04-18T03:47:25.635Z,9.29
2023-04-18T03:49:56.921Z,9.49
2023-04-18T03:52:27.001Z,9.32
2023-04-18T03:54:55.344Z,9.25
2023-04-18T03:57:26.207Z,9.29
2023-04-18T03:59:54.331Z,9.13
2023-04-18T04:02:22.003Z,9.18
2023-04-18T04:04:50.693Z,9.27
2023-04-18T04:07:18.238Z,9.10
2023-04-18T04:09:45.764Z,9.34
2023-04-18T04:12:13.134Z,9.11
2023-04-18T04:14:40.589Z,9.06
2023-04-18T04:17:08.005Z,9.05
2023-04-18T04:19:36.286Z,8.95
2023-04-18T04:22:13.480Z,8.95
2023-04-18T04:24:42.824Z,8.97
2023-04-18T04:27:12.608Z,9.07
2023-04-18T04:29:43.763Z,8.84
2023-04-18T04:32:13.019Z,8.80
2023-04-18T04:34:41.884Z,8.89
2023-04-18T04:37:14.038Z,8.82
2023-04-18T04:39:52.635Z,8.85
2023-04-18T04:42:44.068Z,8.78
2023-04-18T04:45:18.131Z,8.61
2023-04-18T04:47:46.360Z,8.74
2023-04-18T04:50:15.687Z,8.75
2023-04-18T04:52:43.125Z,8.77
2023-04-18T04:55:11.944Z,8.80
2023-04-18T04:57:40.976Z,8.94
2023-04-18T05:00:24.608Z,8.98
2023-04-18T05:02:53.782Z,8.97
2023-04-18T05:05:21.140Z,9.23
2023-04-18T05:07:48.578Z,9.07
2023-04-18T05:10:15.852Z,8.90
2023-04-18T05:12:43.192Z,8.78
2023-04-18T05:15:10.996Z,8.99
2023-04-18T05:17:38.211Z,8.70
2023-04-18T05:20:06.312Z,8.77
2023-04-18T05:22:33.682Z,8.75
2023-04-18T05:25:01.522Z,8.94
2023-04-18T05:27:28.917Z,8.84
2023-04-18T05:29:56.276Z,8.90
2023-04-18T05:32:23.665Z,8.95
2023-04-18T05:34:51.239Z,8.90
2023-04-18T05:37:18.675Z,8.92
2023-04-18T05:39:46.204Z,8.98
2023-04-18T05:42:13.435Z,8.88
2023-04-18T05:44:40.695Z,8.84
2023-04-18T05:47:07.954Z,8.99
2023-04-18T05:49:35.283Z,9.05
2023-04-18T05:52:02.697Z,9.28
2023-04-18T05:54:30.054Z,9.20
2023-04-18T05:56:57.378Z,8.99
2023-04-18T05:59:26.819Z,9.27
2023-04-18T06:01:54.087Z,9.35
2023-04-18T06:04:21.664Z,9.44
2023-04-18T06:06:49.109Z,9.65
2023-04-18T06:09:16.452Z,9.71
2023-04-18T06:11:43.685Z,9.75
2023-04-18T06:14:10.944Z,9.42
2023-04-18T06:16:38.696Z,9.06
2023-04-18T06:19:05.959Z,8.82
2023-04-18T06:21:33.270Z,8.98
2023-04-18T06:24:01.588Z,8.89
2023-04-18T06:26:30.158Z,8.90
2023-04-18T06:28:57.459Z,8.90
2023-04-18T06:31:24.700Z,8.94
2023-04-18T06:33:52.292Z,8.95
2023-04-18T06:36:19.937Z,8.65
2023-04-18T06:38:47.367Z,8.75
2023-04-18T06:41:15.766Z,9.00
2023-04-18T06:43:59.805Z,9.02
2023-04-18T06:46:30.391Z,8.88
2023-04-18T06:48:57.738Z,9.00
2023-04-18T06:51:24.989Z,8.78
2023-04-18T06:53:55.231Z,8.65
2023-04-18T06:56:22.716Z,8.74
2023-04-18T06:58:50.297Z,9.12
2023-04-18T07:01:17.745Z,9.43
2023-04-18T07:03:45.072Z,9.00
2023-04-18T07:06:12.597Z,8.96
2023-04-18T07:08:39.942Z,9.25
2023-04-18T07:11:07.487Z,9.37
2023-04-18T07:13:34.826Z,9.40
2023-04-18T07:16:02.119Z,9.42
2023-04-18T07:18:37.424Z,9.39
2023-04-18T07:21:09.395Z,9.36
2023-04-18T07:23:37.489Z,9.66
2023-04-18T07:26:05.835Z,10.01
2023-04-18T07:28:33.291Z,10.19
2023-04-18T07:31:01.490Z,9.66
2023-04-18T07:33:31.793Z,10.08
2023-04-18T07:36:00.923Z,10.12
2023-04-18T07:38:28.570Z,9.84
2023-04-18T07:41:00.143Z,9.93
2023-04-18T07:43:27.528Z,9.89
2023-04-18T07:45:54.834Z,10.15
2023-04-18T07:48:22.735Z,10.40
2023-04-18T07:50:50.147Z,10.54
2023-04-18T07:53:18.430Z,10.00
2023-04-18T07:55:46.597Z,10.03
2023-04-18T07:58:14.208Z,10.14
2023-04-18T08:00:42.697Z,10.03
2023-04-18T08:03:12.145Z,10.27
2023-04-18T08:05:40.623Z,10.16
2023-04-18T08:08:09.104Z,10.38
2023-04-18T08:10:36.698Z,10.62
2023-04-18T08:13:04.280Z,10.88
2023-04-18T08:15:32.536Z,10.55
2023-04-18T08:18:00.990Z,10.54
2023-04-18T08:20:28.302Z,10.61
2023-04-18T08:25:27.084Z,10.26
2023-04-18T08:27:54.459Z,10.44
2023-04-18T08:30:21.919Z,10.25
2023-04-18T08:32:49.855Z,10.05
2023-04-18T08:35:17.426Z,10.33
2023-04-18T08:37:44.650Z,10.59
2023-04-18T08:40:11.995Z,10.96
2023-04-18T08:42:42.266Z,10.90
2023-04-18T08:45:09.887Z,11.04
2023-04-18T08:47:37.321Z,11.17
2023-04-18T08:50:04.896Z,11.12
2023-04-18T08:52:32.585Z,11.09
2023-04-18T08:55:02.716Z,10.93
2023-04-18T08:57:31.145Z,11.15
2023-04-18T09:00:00.601Z,11.20
2023-04-18T09:02:45.024Z,11.18
2023-04-18T09:05:19.915Z,11.05
2023-04-18T09:07:53.466Z,11.32
2023-04-18T09:10:32.940Z,11.40
2023-04-18T09:13:03.438Z,11.40
2023-04-18T09:15:31.324Z,11.82
2023-04-18T09:18:02.348Z,11.29
2023-04-18T09:20:38.462Z,11.04
2023-04-18T09:23:11.467Z,11.26
2023-04-18T09:25:44.445Z,11.48
2023-04-18T09:28:23.305Z,11.69
2023-04-18T09:30:52.506Z,12.01
2023-04-18T09:33:33.436Z,11.60
2023-04-18T09:36:21.703Z,11.58
2023-04-18T09:38:54.442Z,11.34
2023-04-18T09:41:23.678Z,11.48
2023-04-18T09:44:10.304Z,11.64
2023-04-18T09:46:39.700Z,11.85
2023-04-18T09:49:08.990Z,12.05
2023-04-18T09:51:38.532Z,12.24
2023-04-18T09:54:07.771Z,11.77
2023-04-18T09:56:38.045Z,11.70
2023-04-18T09:59:10.095Z,12.18
2023-04-18T10:01:38.323Z,12.10
2023-04-18T10:04:06.874Z,12.04
2023-04-18T10:06:35.170Z,12.19
2023-04-18T10:09:04.413Z,12.31
2023-04-18T10:11:32.153Z,12.43
2023-04-18T10:14:07.177Z,12.50
2023-04-18T10:16:36.327Z,12.42
2023-04-18T10:19:26.498Z,12.25
2023-04-18T10:21:53.805Z,12.35
2023-04-18T10:24:47.279Z,12.72
2023-04-18T10:27:15.273Z,12.79
2023-04-18T10:29:52.906Z,12.80
2023-04-18T10:32:22.727Z,12.95
2023-04-18T10:34:50.611Z,12.99
2023-04-18T10:37:19.027Z,13.26
2023-04-18T10:40:01.017Z,12.75
2023-04-18T10:42:58.384Z,13.05
2023-04-18T10:45:28.543Z,13.25
2023-04-18T10:48:14.378Z,12.95
2023-04-18T10:51:26.904Z,12.93
2023-04-18T10:53:57.364Z,12.84
2023-04-18T10:56:26.107Z,13.04
2023-04-18T10:58:54.050Z,13.14
2023-04-18T11:01:33.143Z,13.14
2023-04-18T11:04:01.156Z,13.16
2023-04-18T11:06:29.065Z,13.06
2023-04-18T11:09:10.708Z,13.26
2023-04-18T11:11:38.019Z,13.41
2023-04-18T11:14:05.486Z,13.49
2023-04-18T11:16:33.613Z,13.43
2023-04-18T11:19:01.048Z,13.58
2023-04-18T11:21:30.594Z,13.63
2023-04-18T11:23:58.769Z,13.85
2023-04-18T11:26:27.172Z,13.87
2023-04-18T11:28:58.118Z,13.84
2023-04-18T11:31:25.648Z,13.71
2023-04-18T11:33:56.756Z,13.63
2023-04-18T11:36:24.201Z,13.62
2023-04-18T11:38:51.426Z,13.80
2023-04-18T11:41:18.706Z,13.98
2023-04-18T11:43:46.602Z,14.20
2023-04-18T11:46:13.942Z,14.16
2023-04-18T11:48:42.650Z,13.92
2023-04-18T11:51:37.008Z,14.12
2023-04-18T11:54:04.531Z,14.02
2023-04-18T11:56:32.294Z,13.91
2023-04-18T11:59:08.806Z,13.85
2023-04-18T12:01:36.216Z,13.84
2023-04-18T12:04:05.535Z,14.03
2023-04-18T12:06:48.690Z,14.25
2023-04-18T12:09:17.414Z,14.18
2023-04-18T12:11:46.317Z,14.12
2023-04-18T12:14:21.626Z,14.11
2023-04-18T12:16:49.678Z,14.30
2023-04-18T12:19:17.232Z,14.15
2023-04-18T12:22:02.107Z,14.14
2023-04-18T12:24:29.545Z,14.35
2023-04-18T12:26:58.095Z,14.37
2023-04-18T12:29:27.127Z,14.30
2023-04-18T12:31:54.668Z,14.57
2023-04-18T12:34:22.388Z,14.71
2023-04-18T12:36:49.713Z,14.39
2023-04-18T12:39:17.145Z,14.54
2023-04-18T12:41:44.608Z,14.54
2023-04-18T12:44:12.007Z,14.46
2023-04-18T12:46:41.893Z,14.56
2023-04-18T12:49:09.312Z,14.65
2023-04-18T12:51:36.735Z,14.84
2023-04-18T12:54:04.181Z,14.88
2023-04-18T12:56:31.490Z,14.86
2023-04-18T12:58:58.854Z,15.00
2023-04-18T13:01:26.263Z,15.20
2023-04-18T13:04:08.448Z,15.30
2023-04-18T13:06:39.534Z,15.31
2023-04-18T13:09:07.272Z,15.49
2023-04-18T13:11:34.579Z,15.46
2023-04-18T13:14:02.046Z,15.27
2023-04-18T13:16:29.632Z,15.47
2023-04-18T13:18:56.967Z,15.09
2023-04-18T13:21:25.880Z,15.16
2023-04-18T13:23:53.303Z,15.21
2023-04-18T13:26:20.720Z,15.15
2023-04-18T13:28:48.121Z,15.12
2023-04-18T13:31:17.070Z,15.09
2023-04-18T13:33:44.690Z,15.09
2023-04-18T13:36:12.070Z,15.10
2023-04-18T13:38:39.853Z,15.34
2023-04-18T13:41:12.817Z,15.59
2023-04-18T13:43:40.978Z,15.54
2023-04-18T13:46:08.576Z,15.50
2023-04-18T13:48:36.153Z,15.81
2023-04-18T13:51:03.587Z,15.83
2023-04-18T13:53:31.253Z,15.92
2023-04-18T13:55:59.210Z,15.87
2023-04-18T13:58:26.444Z,15.92
2023-04-18T14:00:53.972Z,16.03
2023-04-18T14:03:21.352Z,16.09
2023-04-18T14:05:48.804Z,16.04
2023-04-18T14:08:16.430Z,16.09
2023-04-18T14:10:43.728Z,16.05
2023-04-18T14:13:11.049Z,15.98
2023-04-18T14:15:38.839Z,15.92
2023-04-18T14:18:06.535Z,16.02
2023-04-18T14:20:36.734Z,16.00
2023-04-18T14:23:03.915Z,16.00
2023-04-18T14:25:31.087Z,16.10
2023-04-18T14:28:12.163Z,16.02
2023-04-18T14:30:39.975Z,15.76
2023-04-18T14:33:08.745Z,15.83
2023-04-18T14:35:36.206Z,15.79
2023-04-18T14:38:03.435Z,15.85
2023-04-18T14:40:32.556Z,15.60
2023-04-18T14:43:00.513Z,15.69
2023-04-18T14:45:28.112Z,15.76
2023-04-18T14:47:55.860Z,15.73
2023-04-18T14:50:23.309Z,15.81
2023-04-18T14:52:51.016Z,15.97
2023-04-18T14:55:21.776Z,16.05
2023-04-18T14:57:49.091Z,16.33
2023-04-18T15:00:16.665Z,16.14
2023-04-18T15:02:44.323Z,15.96
2023-04-18T15:05:12.523Z,15.85
2023-04-18T15:07:40.791Z,15.89
2023-04-18T15:10:08.573Z,16.12
2023-04-18T15:12:36.108Z,16.07
2023-04-18T15:15:03.456Z,15.79
2023-04-18T15:17:30.892Z,15.65
2023-04-18T15:20:01.060Z,15.81
2023-04-18T15:22:28.326Z,15.86
2023-04-18T15:24:55.468Z,15.75
2023-04-18T15:27:22.839Z,15.83
2023-04-18T15:29:50.146Z,15.83
2023-04-18T15:32:17.985Z,15.79
2023-04-18T15:34:45.380Z,15.68
2023-04-18T15:37:12.669Z,15.54
2023-04-18T15:39:40.126Z,15.59
2023-04-18T15:42:07.626Z,15.52
2023-04-18T15:44:34.849Z,15.62
2023-04-18T15:47:02.362Z,15.61
2023-04-18T15:49:29.625Z,15.50
2023-04-18T15:51:56.933Z,15.56
2023-04-18T15:54:24.258Z,15.50
2023-04-18T15:56:51.637Z,15.58
2023-04-18T15:59:18.958Z,15.48
2023-04-18T16:01:46.422Z,15.44
2023-04-18T16:04:14.207Z,15.47
2023-04-18T16:06:41.807Z,15.57
2023-04-18T16:09:09.961Z,15.56
2023-04-18T16:11:37.247Z,15.57
2023-04-18T16:14:04.474Z,15.69
2023-04-18T16:16:32.122Z,15.54
2023-04-18T16:18:59.840Z,15.49
2023-04-18T16:21:28.306Z,15.36
2023-04-18T16:23:56.984Z,15.25
2023-04-18T16:26:24.991Z,15.43
2023-04-18T16:28:52.393Z,15.64
2023-04-18T16:31:19.855Z,15.80
2023-04-18T16:33:47.292Z,15.83
2023-04-18T16:36:15.187Z,15.54
2023-04-18T16:38:42.572Z,15.38
2023-04-18T16:41:09.891Z,15.47
2023-04-18T16:43:38.058Z,15.64
2023-04-18T16:46:05.692Z,15.71
2023-04-18T16:48:33.079Z,15.52
2023-04-18T16:51:00.724Z,15.47
2023-04-18T16:53:28.497Z,15.58
2023-04-18T16:55:55.970Z,15.54
2023-04-18T16:58:23.701Z,15.37
2023-04-18T17:00:52.871Z,15.35
2023-04-18T17:03:20.598Z,15.42
2023-04-18T17:05:47.957Z,15.56
2023-04-18T17:08:15.191Z,15.57
2023-04-18T17:10:42.556Z,15.69
2023-04-18T17:13:09.874Z,15.71
2023-04-18T17:15:38.199Z,15.55
2023-04-18T17:18:05.794Z,15.51
2023-04-18T17:20:33.171Z,15.37
2023-04-18T17:23:00.708Z,15.39
2023-04-18T17:25:27.922Z,15.20
2023-04-18T17:27:55.196Z,14.59
2023-04-18T17:30:22.540Z,14.22
2023-04-18T17:32:50.540Z,14.12
2023-04-18T17:35:17.926Z,13.96
2023-04-18T17:37:46.625Z,13.95
2023-04-18T17:40:14.256Z,13.89
2023-04-18T17:42:41.677Z,14.03
2023-04-18T17:45:10.012Z,13.98
2023-04-18T17:47:37.547Z,14.17
2023-04-18T17:50:05.392Z,14.40
2023-04-18T17:52:33.092Z,14.42
2023-04-18T17:55:01.659Z,14.34
2023-04-18T17:57:30.563Z,14.43
2023-04-18T17:59:58.086Z,14.55
2023-04-18T18:02:25.566Z,14.41
2023-04-18T18:04:53.148Z,14.13
2023-04-18T18:07:20.946Z,14.03
2023-04-18T18:09:48.407Z,13.73
2023-04-18T18:12:15.823Z,13.53
2023-04-18T18:14:43.075Z,13.55
2023-04-18T18:17:11.195Z,13.58
2023-04-18T18:19:38.927Z,13.46
2023-04-18T18:22:07.090Z,13.43
2023-04-18T18:24:34.583Z,13.31
2023-04-18T18:27:01.829Z,13.18
2023-04-18T18:29:30.372Z,13.09
2023-04-18T18:31:57.569Z,13.11
2023-04-18T18:34:25.116Z,13.11
2023-04-18T18:36:52.428Z,13.10
2023-04-18T18:39:20.051Z,13.15
2023-04-18T18:41:47.312Z,13.22
2023-04-18T18:44:14.722Z,13.21
2023-04-18T18:46:43.237Z,13.06
2023-04-18T18:49:10.732Z,13.13
2023-04-18T18:51:38.087Z,13.10
2023-04-18T18:54:05.500Z,13.17
2023-04-18T18:56:32.948Z,13.27
2023-04-18T18:59:00.284Z,13.41
2023-04-18T19:01:30.123Z,13.46
2023-04-18T19:03:57.561Z,13.52
2023-04-18T19:06:24.938Z,13.62
2023-04-18T19:08:52.378Z,13.53
2023-04-18T19:11:19.791Z,13.65
2023-04-18T19:13:47.129Z,13.52
2023-04-18T19:16:14.719Z,13.55
2023-04-18T19:18:46.864Z,13.46
2023-04-18T19:21:14.122Z,13.45
2023-04-18T19:23:42.138Z,13.54
2023-04-18T19:26:12.363Z,13.41
2023-04-18T19:28:39.630Z,13.44
2023-04-18T19:31:06.960Z,13.45
2023-04-18T19:33:34.282Z,13.56
2023-04-18T19:36:02.186Z,13.59
2023-04-18T19:38:29.405Z,13.56
2023-04-18T19:40:57.288Z,13.58
2023-04-18T19:43:24.586Z,13.60
2023-04-18T19:45:53.872Z,13.42
2023-04-18T19:48:22.439Z,13.27
2023-04-18T19:50:50.104Z,13.25
2023-04-18T19:53:18.988Z,13.46
2023-04-18T19:55:46.320Z,13.54
2023-04-18T19:58:34.609Z,13.37
2023-04-18T20:01:02.037Z,13.29
2023-04-18T20:03:29.517Z,13.49
2023-04-18T20:05:56.991Z,13.45
2023-04-18T20:08:24.230Z,13.37
2023-04-18T20:10:51.572Z,13.32
2023-04-18T20:13:18.893Z,13.27
2023-04-18T20:15:46.110Z,13.17
2023-04-18T20:18:13.507Z,13.17
2023-04-18T20:20:41.336Z,13.20
2023-04-18T20:23:09.189Z,13.50
2023-04-18T20:25:36.612Z,13.68
2023-04-18T20:28:04.038Z,13.56
2023-04-18T20:30:31.469Z,13.38
2023-04-18T20:32:58.871Z,13.41
2023-04-18T20:35:28.077Z,13.42
2023-04-18T20:37:55.711Z,13.50
2023-04-18T20:40:23.092Z,13.71
2023-04-18T20:42:50.619Z,13.68
2023-04-18T20:45:17.998Z,13.36
2023-04-18T20:47:45.819Z,13.28
2023-04-18T20:50:14.035Z,13.33
2023-04-18T20:52:42.847Z,13.46
2023-04-18T20:55:10.979Z,13.33
2023-04-18T20:57:38.225Z,13.45
2023-04-18T21:00:07.299Z,13.45
2023-04-18T21:02:34.680Z,13.52
2023-04-18T21:05:02.460Z,13.53
2023-04-18T21:07:31.165Z,13.60
2023-04-18T21:09:58.503Z,13.51
2023-04-18T21:12:25.883Z,13.47
2023-04-18T21:14:53.104Z,13.44
2023-04-18T21:17:20.428Z,13.40
2023-04-18T21:19:48.730Z,13.38
2023-04-18T21:22:16.419Z,13.45
2023-04-18T21:24:43.897Z,13.36
2023-04-18T21:27:11.374Z,13.28
2023-04-18T21:29:38.845Z,13.39
2023-04-18T21:32:06.204Z,13.28
2023-04-18T21:34:33.465Z,13.21
2023-04-18T21:37:00.838Z,13.12
2023-04-18T21:39:28.109Z,13.25
2023-04-18T21:41:55.347Z,13.46
2023-04-18T21:44:22.790Z,13.44
2023-04-18T21:46:50.037Z,13.34
2023-04-18T21:49:17.435Z,13.11
2023-04-18T21:51:45.306Z,13.18
2023-04-18T21:54:12.707Z,13.10
2023-04-18T21:56:40.194Z,13.00
2023-04-18T21:59:07.408Z,13.06
2023-04-18T22:01:35.869Z,13.22
2023-04-18T22:04:03.353Z,13.25
2023-04-18T22:06:32.342Z,13.23
2023-04-18T22:09:00.969Z,13.27
2023-04-18T22:11:28.893Z,13.35
2023-04-18T22:13:58.146Z,13.29
2023-04-18T22:16:25.990Z,13.45
2023-04-18T22:18:53.996Z,13.53
2023-04-18T22:21:21.339Z,13.44
2023-04-18T22:23:48.555Z,13.50
2023-04-18T22:26:15.834Z,13.60
2023-04-18T22:28:43.259Z,13.21
2023-04-18T22:31:10.698Z,13.51
2023-04-18T22:33:38.061Z,13.28
2023-04-18T22:36:05.933Z,13.15
2023-04-18T22:38:33.228Z,12.94
2023-04-18T22:41:00.811Z,13.08
2023-04-18T22:43:28.454Z,13.03
2023-04-18T22:45:56.550Z,12.99
2023-04-18T22:48:23.932Z,12.96
2023-04-18T22:50:51.175Z,13.06
2023-04-18T22:53:18.458Z,13.03
2023-04-18T22:55:46.305Z,12.96
2023-04-18T22:58:14.214Z,13.04
2023-04-18T23:00:42.651Z,13.13
2023-04-18T23:03:10.327Z,12.99
2023-04-18T23:05:37.629Z,12.82
2023-04-18T23:08:06.916Z,12.98
2023-04-18T23:10:34.409Z,12.98
2023-04-18T23:13:01.613Z,12.93
2023-04-18T23:15:28.936Z,12.74
2023-04-18T23:17:56.281Z,12.75
2023-04-18T23:20:24.088Z,12.84
2023-04-18T23:22:51.786Z,12.87
2023-04-18T23:25:22.389Z,12.93
2023-04-18T23:27:49.660Z,12.68
2023-04-18T23:30:17.225Z,12.69
2023-04-18T23:32:44.528Z,12.62
2023-04-18T23:35:12.001Z,12.62
2023-04-18T23:37:39.423Z,12.55
2023-04-18T23:40:08.035Z,12.55
2023-04-18T23:42:35.722Z,12.59
2023-04-18T23:45:04.041Z,12.46
2023-04-18T23:47:31.609Z,12.45
2023-04-18T23:49:59.139Z,12.53
2023-04-18T23:52:26.584Z,12.42
2023-04-18T23:54:53.941Z,12.31
2023-04-18T23:57:21.364Z,12.44
2023-04-18T23:59:48.881Z,12.63
